Snowdon, United Kingdom
Current Conditions -  °F | °C
As of 9:50 AM on Wednesday 26 Nov 2014 (Local Time) from EGOV Reporting Station
Haze Haze  
Wind Chill: 42°   Ceiling: Unl
Heat Index: 46°   Visibility: 3mi
Dew Point: 43°   Wind: 8mph
Humidity: 87%   Direction: 60°ENE
Pressure: 29.91"   Gusts: NA
Location:  53.07°N, 4.08°W
Report Text: EGOV 260950Z 06007KT 5000 HZ FEW012 SCT060 08/06 Q1013 WHT NOSIG
Loading
Personal Weather Stations






























Interactive Weather Map New forecast layout! Learn more

10-Day Weather Forecast

Advertisements
Track Severe Weather on mobile